sensor_id;sensor_type;location;lat;lon;timestamp;temperature;humidity
19214;DHT22;9741;51.020;5.304;2023-02-01T00:00:04;6.40;68.20
19214;DHT22;9741;51.020;5.304;2023-02-01T00:02:31;6.40;68.10
19214;DHT22;9741;51.020;5.304;2023-02-01T00:05:02;6.30;67.90
19214;DHT22;9741;51.020;5.304;2023-02-01T00:07:30;6.30;67.80
19214;DHT22;9741;51.020;5.304;2023-02-01T00:09:57;6.20;67.70
19214;DHT22;9741;51.020;5.304;2023-02-01T00:12:25;6.20;67.70
19214;DHT22;9741;51.020;5.304;2023-02-01T00:14:53;6.20;67.60
19214;DHT22;9741;51.020;5.304;2023-02-01T00:17:20;6.10;67.60
19214;DHT22;9741;51.020;5.304;2023-02-01T00:19:48;6.00;67.60
19214;DHT22;9741;51.020;5.304;2023-02-01T00:22:16;6.00;67.60
19214;DHT22;9741;51.020;5.304;2023-02-01T00:24:44;5.90;67.50
19214;DHT22;9741;51.020;5.304;2023-02-01T00:27:11;5.90;67.50
19214;DHT22;9741;51.020;5.304;2023-02-01T00:29:44;5.80;67.40
19214;DHT22;9741;51.020;5.304;2023-02-01T00:32:12;5.70;67.40
19214;DHT22;9741;51.020;5.304;2023-02-01T00:34:40;5.70;67.50
19214;DHT22;9741;51.020;5.304;2023-02-01T00:37:07;5.70;67.50
19214;DHT22;9741;51.020;5.304;2023-02-01T00:39:34;5.60;67.50
19214;DHT22;9741;51.020;5.304;2023-02-01T00:42:02;5.60;67.50
19214;DHT22;9741;51.020;5.304;2023-02-01T00:44:30;5.60;67.60
19214;DHT22;9741;51.020;5.304;2023-02-01T00:47:01;5.60;67.70
19214;DHT22;9741;51.020;5.304;2023-02-01T00:49:29;5.60;67.70
19214;DHT22;9741;51.020;5.304;2023-02-01T00:51:56;5.60;67.80
19214;DHT22;9741;51.020;5.304;2023-02-01T00:54:23;5.70;68.00
19214;DHT22;9741;51.020;5.304;2023-02-01T00:56:51;5.70;68.00
19214;DHT22;9741;51.020;5.304;2023-02-01T00:59:18;5.80;68.20
19214;DHT22;9741;51.020;5.304;2023-02-01T01:01:45;5.90;68.30
19214;DHT22;9741;51.020;5.304;2023-02-01T01:04:13;6.00;68.20
19214;DHT22;9741;51.020;5.304;2023-02-01T01:06:43;6.10;68.20
19214;DHT22;9741;51.020;5.304;2023-02-01T01:09:10;6.20;68.20
19214;DHT22;9741;51.020;5.304;2023-02-01T01:11:38;6.30;68.20
19214;DHT22;9741;51.020;5.304;2023-02-01T01:14:07;6.40;68.20
19214;DHT22;9741;51.020;5.304;2023-02-01T01:16:35;6.40;68.10
19214;DHT22;9741;51.020;5.304;2023-02-01T01:19:03;6.50;68.10
19214;DHT22;9741;51.020;5.304;2023-02-01T01:21:32;6.70;68.20
19214;DHT22;9741;51.020;5.304;2023-02-01T01:24:00;6.70;68.10
19214;DHT22;9741;51.020;5.304;2023-02-01T01:26:28;6.80;68.10
19214;DHT22;9741;51.020;5.304;2023-02-01T01:28:57;6.80;68.00
19214;DHT22;9741;51.020;5.304;2023-02-01T01:31:29;6.90;68.00
19214;DHT22;9741;51.020;5.304;2023-02-01T01:33:59;6.90;67.80
19214;DHT22;9741;51.020;5.304;2023-02-01T01:36:27;6.90;67.70
19214;DHT22;9741;51.020;5.304;2023-02-01T01:38:56;6.80;67.50
19214;DHT22;9741;51.020;5.304;2023-02-01T01:41:25;6.70;67.40
19214;DHT22;9741;51.020;5.304;2023-02-01T01:43:55;6.70;67.40
19214;DHT22;9741;51.020;5.304;2023-02-01T01:46:24;6.60;67.30
19214;DHT22;9741;51.020;5.304;2023-02-01T01:48:58;6.50;67.30
19214;DHT22;9741;51.020;5.304;2023-02-01T01:51:28;6.40;67.30
19214;DHT22;9741;51.020;5.304;2023-02-01T01:54:04;6.40;67.40
19214;DHT22;9741;51.020;5.304;2023-02-01T01:56:34;6.30;68.00
19214;DHT22;9741;51.020;5.304;2023-02-01T01:59:02;6.30;67.40
19214;DHT22;9741;51.020;5.304;2023-02-01T02:01:31;6.20;67.20
19214;DHT22;9741;51.020;5.304;2023-02-01T02:03:59;6.20;67.20
19214;DHT22;9741;51.020;5.304;2023-02-01T02:06:34;6.20;67.20
19214;DHT22;9741;51.020;5.304;2023-02-01T02:09:06;6.10;67.20
19214;DHT22;9741;51.020;5.304;2023-02-01T02:11:34;6.10;67.10
19214;DHT22;9741;51.020;5.304;2023-02-01T02:14:03;6.10;67.10
19214;DHT22;9741;51.020;5.304;2023-02-01T02:16:58;6.00;67.00
19214;DHT22;9741;51.020;5.304;2023-02-01T02:28:46;5.80;67.20
19214;DHT22;9741;51.020;5.304;2023-02-01T02:31:45;5.80;67.30
19214;DHT22;9741;51.020;5.304;2023-02-01T02:34:22;5.80;67.30
19214;DHT22;9741;51.020;5.304;2023-02-01T02:36:59;5.80;67.30
19214;DHT22;9741;51.020;5.304;2023-02-01T02:39:39;5.80;67.30
19214;DHT22;9741;51.020;5.304;2023-02-01T02:42:13;5.80;67.30
19214;DHT22;9741;51.020;5.304;2023-02-01T02:45:02;5.80;67.30
19214;DHT22;9741;51.020;5.304;2023-02-01T02:47:54;5.80;67.40
19214;DHT22;9741;51.020;5.304;2023-02-01T02:50:27;5.80;67.40
19214;DHT22;9741;51.020;5.304;2023-02-01T02:53:17;5.80;67.40
19214;DHT22;9741;51.020;5.304;2023-02-01T02:56:04;5.80;67.30
19214;DHT22;9741;51.020;5.304;2023-02-01T02:58:50;5.70;67.20
19214;DHT22;9741;51.020;5.304;2023-02-01T03:01:37;5.70;67.20
19214;DHT22;9741;51.020;5.304;2023-02-01T03:04:22;5.70;67.30
19214;DHT22;9741;51.020;5.304;2023-02-01T03:06:53;5.80;67.30
19214;DHT22;9741;51.020;5.304;2023-02-01T03:09:26;5.80;67.10
19214;DHT22;9741;51.020;5.304;2023-02-01T03:11:58;5.70;67.00
19214;DHT22;9741;51.020;5.304;2023-02-01T03:14:47;5.70;67.00
19214;DHT22;9741;51.020;5.304;2023-02-01T03:17:21;5.70;67.10
19214;DHT22;9741;51.020;5.304;2023-02-01T03:19:51;5.70;67.10
19214;DHT22;9741;51.020;5.304;2023-02-01T03:22:24;5.80;67.10
19214;DHT22;9741;51.020;5.304;2023-02-01T03:24:56;5.80;67.10
19214;DHT22;9741;51.020;5.304;2023-02-01T03:27:30;5.80;67.10
19214;DHT22;9741;51.020;5.304;2023-02-01T03:30:02;5.80;67.00
19214;DHT22;9741;51.020;5.304;2023-02-01T03:32:32;5.80;67.00
19214;DHT22;9741;51.020;5.304;2023-02-01T03:35:23;5.80;66.90
19214;DHT22;9741;51.020;5.304;2023-02-01T03:37:59;5.90;66.90
19214;DHT22;9741;51.020;5.304;2023-02-01T03:40:34;5.90;66.80
19214;DHT22;9741;51.020;5.304;2023-02-01T03:43:04;5.90;66.80
19214;DHT22;9741;51.020;5.304;2023-02-01T03:45:36;5.90;66.80
19214;DHT22;9741;51.020;5.304;2023-02-01T03:48:07;5.90;66.70
19214;DHT22;9741;51.020;5.304;2023-02-01T03:50:40;5.90;66.60
19214;DHT22;9741;51.020;5.304;2023-02-01T03:53:14;5.90;66.40
19214;DHT22;9741;51.020;5.304;2023-02-01T03:55:44;5.90;66.40
19214;DHT22;9741;51.020;5.304;2023-02-01T03:58:13;5.90;66.40
19214;DHT22;9741;51.020;5.304;2023-02-01T04:00:45;5.90;66.40
19214;DHT22;9741;51.020;5.304;2023-02-01T04:03:13;6.00;66.50
19214;DHT22;9741;51.020;5.304;2023-02-01T04:05:41;6.00;66.50
19214;DHT22;9741;51.020;5.304;2023-02-01T04:08:08;6.10;66.50
19214;DHT22;9741;51.020;5.304;2023-02-01T04:10:36;6.10;66.40
19214;DHT22;9741;51.020;5.304;2023-02-01T04:13:04;6.20;66.30
19214;DHT22;9741;51.020;5.304;2023-02-01T04:15:31;6.30;66.20
19214;DHT22;9741;51.020;5.304;2023-02-01T04:18:00;6.30;66.10
19214;DHT22;9741;51.020;5.304;2023-02-01T04:20:28;6.30;65.90
19214;DHT22;9741;51.020;5.304;2023-02-01T04:22:56;6.30;65.70
19214;DHT22;9741;51.020;5.304;2023-02-01T04:25:23;6.30;65.60
19214;DHT22;9741;51.020;5.304;2023-02-01T04:27:52;6.30;65.50
19214;DHT22;9741;51.020;5.304;2023-02-01T04:30:20;6.30;65.50
19214;DHT22;9741;51.020;5.304;2023-02-01T04:32:48;6.20;65.40
19214;DHT22;9741;51.020;5.304;2023-02-01T04:35:16;6.20;65.30
19214;DHT22;9741;51.020;5.304;2023-02-01T04:37:44;6.20;65.30
19214;DHT22;9741;51.020;5.304;2023-02-01T04:40:12;6.10;65.20
19214;DHT22;9741;51.020;5.304;2023-02-01T04:42:39;6.10;65.20
19214;DHT22;9741;51.020;5.304;2023-02-01T04:45:08;6.00;65.10
19214;DHT22;9741;51.020;5.304;2023-02-01T04:47:36;6.00;65.00
19214;DHT22;9741;51.020;5.304;2023-02-01T04:50:03;5.90;64.90
19214;DHT22;9741;51.020;5.304;2023-02-01T04:52:32;5.90;65.00
19214;DHT22;9741;51.020;5.304;2023-02-01T04:54:59;5.80;64.90
19214;DHT22;9741;51.020;5.304;2023-02-01T04:57:28;5.80;65.00
19214;DHT22;9741;51.020;5.304;2023-02-01T04:59:55;5.80;65.00
19214;DHT22;9741;51.020;5.304;2023-02-01T05:02:24;5.70;64.90
19214;DHT22;9741;51.020;5.304;2023-02-01T05:04:51;5.80;65.00
19214;DHT22;9741;51.020;5.304;2023-02-01T05:07:20;5.70;65.00
19214;DHT22;9741;51.020;5.304;2023-02-01T05:09:48;5.70;65.00
19214;DHT22;9741;51.020;5.304;2023-02-01T05:12:16;5.70;65.00
19214;DHT22;9741;51.020;5.304;2023-02-01T05:15:01;5.70;65.00
19214;DHT22;9741;51.020;5.304;2023-02-01T05:17:30;5.60;64.90
19214;DHT22;9741;51.020;5.304;2023-02-01T05:19:58;5.70;65.00
19214;DHT22;9741;51.020;5.304;2023-02-01T05:22:26;5.70;65.00
19214;DHT22;9741;51.020;5.304;2023-02-01T05:24:53;5.60;64.90
19214;DHT22;9741;51.020;5.304;2023-02-01T05:27:20;5.60;64.90
19214;DHT22;9741;51.020;5.304;2023-02-01T05:29:48;5.60;64.90
19214;DHT22;9741;51.020;5.304;2023-02-01T05:32:15;5.60;64.90
19214;DHT22;9741;51.020;5.304;2023-02-01T05:34:44;5.60;64.80
19214;DHT22;9741;51.020;5.304;2023-02-01T05:37:11;5.60;64.80
19214;DHT22;9741;51.020;5.304;2023-02-01T05:39:39;5.50;64.70
19214;DHT22;9741;51.020;5.304;2023-02-01T05:42:06;5.50;64.80
19214;DHT22;9741;51.020;5.304;2023-02-01T05:44:32;5.50;64.80
19214;DHT22;9741;51.020;5.304;2023-02-01T05:46:59;5.50;64.80
19214;DHT22;9741;51.020;5.304;2023-02-01T05:49:26;5.50;64.90
19214;DHT22;9741;51.020;5.304;2023-02-01T05:51:55;5.60;65.00
19214;DHT22;9741;51.020;5.304;2023-02-01T05:54:22;5.60;64.90
19214;DHT22;9741;51.020;5.304;2023-02-01T05:56:49;5.50;64.70
19214;DHT22;9741;51.020;5.304;2023-02-01T05:59:17;5.60;64.80
19214;DHT22;9741;51.020;5.304;2023-02-01T06:01:44;5.50;64.70
19214;DHT22;9741;51.020;5.304;2023-02-01T06:04:12;5.50;65.30
19214;DHT22;9741;51.020;5.304;2023-02-01T06:06:40;5.50;64.80
19214;DHT22;9741;51.020;5.304;2023-02-01T06:09:08;5.50;64.70
19214;DHT22;9741;51.020;5.304;2023-02-01T06:11:35;5.40;64.50
19214;DHT22;9741;51.020;5.304;2023-02-01T06:14:02;5.40;64.60
19214;DHT22;9741;51.020;5.304;2023-02-01T06:16:30;5.40;64.70
19214;DHT22;9741;51.020;5.304;2023-02-01T06:18:57;5.40;64.70
19214;DHT22;9741;51.020;5.304;2023-02-01T06:21:24;5.40;64.70
19214;DHT22;9741;51.020;5.304;2023-02-01T06:23:53;5.40;64.70
19214;DHT22;9741;51.020;5.304;2023-02-01T06:26:25;5.30;64.60
19214;DHT22;9741;51.020;5.304;2023-02-01T06:28:54;5.40;64.70
19214;DHT22;9741;51.020;5.304;2023-02-01T06:31:22;5.30;64.70
19214;DHT22;9741;51.020;5.304;2023-02-01T06:33:51;5.30;64.70
19214;DHT22;9741;51.020;5.304;2023-02-01T06:36:20;5.30;64.70
19214;DHT22;9741;51.020;5.304;2023-02-01T06:38:48;5.40;64.80
19214;DHT22;9741;51.020;5.304;2023-02-01T06:41:16;5.40;64.80
19214;DHT22;9741;51.020;5.304;2023-02-01T06:43:45;5.40;64.80
19214;DHT22;9741;51.020;5.304;2023-02-01T06:46:13;5.40;64.80
19214;DHT22;9741;51.020;5.304;2023-02-01T06:48:42;5.40;64.80
19214;DHT22;9741;51.020;5.304;2023-02-01T06:51:20;5.40;64.80
19214;DHT22;9741;51.020;5.304;2023-02-01T06:53:49;5.50;64.80
19214;DHT22;9741;51.020;5.304;2023-02-01T06:56:16;5.50;64.80
19214;DHT22;9741;51.020;5.304;2023-02-01T06:58:45;5.50;64.70
19214;DHT22;9741;51.020;5.304;2023-02-01T07:01:13;5.50;64.70
19214;DHT22;9741;51.020;5.304;2023-02-01T07:03:41;5.50;64.70
19214;DHT22;9741;51.020;5.304;2023-02-01T07:06:09;5.50;64.70
19214;DHT22;9741;51.020;5.304;2023-02-01T07:08:38;5.50;64.70
19214;DHT22;9741;51.020;5.304;2023-02-01T07:11:07;5.50;64.70
19214;DHT22;9741;51.020;5.304;2023-02-01T07:13:35;5.50;64.60
19214;DHT22;9741;51.020;5.304;2023-02-01T07:16:06;5.50;64.60
19214;DHT22;9741;51.020;5.304;2023-02-01T07:18:33;5.50;64.60
19214;DHT22;9741;51.020;5.304;2023-02-01T07:21:01;5.50;64.60
19214;DHT22;9741;51.020;5.304;2023-02-01T07:23:28;5.40;64.50
19214;DHT22;9741;51.020;5.304;2023-02-01T07:25:56;5.40;64.50
19214;DHT22;9741;51.020;5.304;2023-02-01T07:28:24;5.40;64.60
19214;DHT22;9741;51.020;5.304;2023-02-01T07:30:51;5.40;64.60
19214;DHT22;9741;51.020;5.304;2023-02-01T07:33:22;5.40;64.60
19214;DHT22;9741;51.020;5.304;2023-02-01T07:35:51;5.40;64.70
19214;DHT22;9741;51.020;5.304;2023-02-01T07:38:18;5.40;64.70
19214;DHT22;9741;51.020;5.304;2023-02-01T07:40:47;5.30;64.50
19214;DHT22;9741;51.020;5.304;2023-02-01T07:43:14;5.30;64.60
19214;DHT22;9741;51.020;5.304;2023-02-01T07:45:41;5.40;64.70
19214;DHT22;9741;51.020;5.304;2023-02-01T07:48:09;5.30;64.60
19214;DHT22;9741;51.020;5.304;2023-02-01T07:50:38;5.40;64.70
19214;DHT22;9741;51.020;5.304;2023-02-01T07:53:05;5.40;64.70
19214;DHT22;9741;51.020;5.304;2023-02-01T07:55:32;5.40;64.70
19214;DHT22;9741;51.020;5.304;2023-02-01T07:58:00;5.50;64.80
19214;DHT22;9741;51.020;5.304;2023-02-01T08:00:27;5.50;64.70
19214;DHT22;9741;51.020;5.304;2023-02-01T08:03:12;5.50;64.70
19214;DHT22;9741;51.020;5.304;2023-02-01T08:05:41;5.50;64.60
19214;DHT22;9741;51.020;5.304;2023-02-01T08:08:08;5.60;64.70
19214;DHT22;9741;51.020;5.304;2023-02-01T08:10:36;5.60;64.70
19214;DHT22;9741;51.020;5.304;2023-02-01T08:13:03;5.70;64.80
19214;DHT22;9741;51.020;5.304;2023-02-01T08:15:30;5.80;64.90
19214;DHT22;9741;51.020;5.304;2023-02-01T08:17:58;5.80;64.80
19214;DHT22;9741;51.020;5.304;2023-02-01T08:20:27;5.90;64.80
19214;DHT22;9741;51.020;5.304;2023-02-01T08:22:57;6.00;64.80
19214;DHT22;9741;51.020;5.304;2023-02-01T08:25:24;6.00;64.80
19214;DHT22;9741;51.020;5.304;2023-02-01T08:27:51;6.10;64.80
19214;DHT22;9741;51.020;5.304;2023-02-01T08:30:20;6.30;65.10
19214;DHT22;9741;51.020;5.304;2023-02-01T08:32:47;6.40;65.10
19214;DHT22;9741;51.020;5.304;2023-02-01T08:35:14;6.60;65.10
19214;DHT22;9741;51.020;5.304;2023-02-01T08:37:44;6.80;65.00
19214;DHT22;9741;51.020;5.304;2023-02-01T08:40:13;7.00;64.80
19214;DHT22;9741;51.020;5.304;2023-02-01T08:42:40;7.20;64.60
19214;DHT22;9741;51.020;5.304;2023-02-01T08:45:22;7.30;64.50
19214;DHT22;9741;51.020;5.304;2023-02-01T08:47:51;7.40;64.30
19214;DHT22;9741;51.020;5.304;2023-02-01T08:50:18;7.50;64.20
19214;DHT22;9741;51.020;5.304;2023-02-01T08:52:47;7.70;64.10
19214;DHT22;9741;51.020;5.304;2023-02-01T08:55:18;7.70;63.90
19214;DHT22;9741;51.020;5.304;2023-02-01T08:57:45;7.90;63.80
19214;DHT22;9741;51.020;5.304;2023-02-01T09:00:16;7.90;63.60
19214;DHT22;9741;51.020;5.304;2023-02-01T09:02:44;8.00;63.50
19214;DHT22;9741;51.020;5.304;2023-02-01T09:05:12;8.00;63.40
19214;DHT22;9741;51.020;5.304;2023-02-01T09:07:45;8.10;63.30
19214;DHT22;9741;51.020;5.304;2023-02-01T09:10:12;8.20;63.20
19214;DHT22;9741;51.020;5.304;2023-02-01T09:12:41;8.20;63.10
19214;DHT22;9741;51.020;5.304;2023-02-01T09:15:09;8.30;63.00
19214;DHT22;9741;51.020;5.304;2023-02-01T09:17:36;8.30;62.80
19214;DHT22;9741;51.020;5.304;2023-02-01T09:20:05;8.30;62.60
19214;DHT22;9741;51.020;5.304;2023-02-01T09:22:32;8.30;62.60
19214;DHT22;9741;51.020;5.304;2023-02-01T09:24:59;8.40;62.50
19214;DHT22;9741;51.020;5.304;2023-02-01T09:27:26;8.40;62.90
19214;DHT22;9741;51.020;5.304;2023-02-01T09:29:56;8.40;62.30
19214;DHT22;9741;51.020;5.304;2023-02-01T09:32:24;8.40;62.20
19214;DHT22;9741;51.020;5.304;2023-02-01T09:34:52;8.40;62.10
19214;DHT22;9741;51.020;5.304;2023-02-01T09:37:20;8.40;62.00
19214;DHT22;9741;51.020;5.304;2023-02-01T09:39:47;8.40;61.90
19214;DHT22;9741;51.020;5.304;2023-02-01T09:42:23;8.30;61.80
19214;DHT22;9741;51.020;5.304;2023-02-01T09:45:03;8.30;61.80
19214;DHT22;9741;51.020;5.304;2023-02-01T09:47:35;8.30;61.80
19214;DHT22;9741;51.020;5.304;2023-02-01T09:50:11;8.20;61.70
19214;DHT22;9741;51.020;5.304;2023-02-01T09:52:44;8.20;61.70
19214;DHT22;9741;51.020;5.304;2023-02-01T09:55:16;8.20;61.70
19214;DHT22;9741;51.020;5.304;2023-02-01T09:57:49;8.20;61.70
19214;DHT22;9741;51.020;5.304;2023-02-01T10:00:23;8.20;61.70
19214;DHT22;9741;51.020;5.304;2023-02-01T10:02:54;8.20;61.70
19214;DHT22;9741;51.020;5.304;2023-02-01T10:05:34;8.20;61.70
19214;DHT22;9741;51.020;5.304;2023-02-01T10:08:12;8.30;61.70
19214;DHT22;9741;51.020;5.304;2023-02-01T10:10:47;8.20;61.50
19214;DHT22;9741;51.020;5.304;2023-02-01T10:13:26;8.30;61.60
19214;DHT22;9741;51.020;5.304;2023-02-01T10:16:10;8.30;61.50
19214;DHT22;9741;51.020;5.304;2023-02-01T10:19:02;8.30;61.50
19214;DHT22;9741;51.020;5.304;2023-02-01T10:21:40;8.30;61.40
19214;DHT22;9741;51.020;5.304;2023-02-01T10:27:11;8.40;61.30
19214;DHT22;9741;51.020;5.304;2023-02-01T10:29:42;8.40;61.30
19214;DHT22;9741;51.020;5.304;2023-02-01T10:32:15;8.50;61.30
19214;DHT22;9741;51.020;5.304;2023-02-01T10:34:47;8.50;61.20
19214;DHT22;9741;51.020;5.304;2023-02-01T10:37:27;8.60;61.20
19214;DHT22;9741;51.020;5.304;2023-02-01T10:39:55;8.70;61.10
19214;DHT22;9741;51.020;5.304;2023-02-01T10:42:26;8.70;60.90
19214;DHT22;9741;51.020;5.304;2023-02-01T10:44:55;8.90;60.90
19214;DHT22;9741;51.020;5.304;2023-02-01T10:47:25;9.00;60.80
19214;DHT22;9741;51.020;5.304;2023-02-01T10:49:57;9.10;60.60
19214;DHT22;9741;51.020;5.304;2023-02-01T10:52:36;9.30;60.60
19214;DHT22;9741;51.020;5.304;2023-02-01T10:55:36;9.50;60.40
19214;DHT22;9741;51.020;5.304;2023-02-01T10:58:05;9.70;60.30
19214;DHT22;9741;51.020;5.304;2023-02-01T11:00:41;9.80;59.90
19214;DHT22;9741;51.020;5.304;2023-02-01T11:03:27;9.90;59.70
19214;DHT22;9741;51.020;5.304;2023-02-01T11:05:57;10.00;58.50
19214;DHT22;9741;51.020;5.304;2023-02-01T11:08:25;10.10;58.40
19214;DHT22;9741;51.020;5.304;2023-02-01T11:10:59;10.30;58.20
19214;DHT22;9741;51.020;5.304;2023-02-01T11:13:32;10.30;57.90
19214;DHT22;9741;51.020;5.304;2023-02-01T11:16:04;10.50;57.80
19214;DHT22;9741;51.020;5.304;2023-02-01T11:18:36;10.60;57.60
19214;DHT22;9741;51.020;5.304;2023-02-01T11:21:05;10.80;57.50
19214;DHT22;9741;51.020;5.304;2023-02-01T11:23:35;10.90;57.30
19214;DHT22;9741;51.020;5.304;2023-02-01T11:26:10;11.10;57.10
19214;DHT22;9741;51.020;5.304;2023-02-01T11:28:40;11.30;57.10
19214;DHT22;9741;51.020;5.304;2023-02-01T11:31:11;11.40;56.70
19214;DHT22;9741;51.020;5.304;2023-02-01T11:33:47;11.40;56.20
19214;DHT22;9741;51.020;5.304;2023-02-01T11:36:18;11.40;55.90
19214;DHT22;9741;51.020;5.304;2023-02-01T11:38:51;11.40;55.60
19214;DHT22;9741;51.020;5.304;2023-02-01T11:41:22;11.30;55.50
19214;DHT22;9741;51.020;5.304;2023-02-01T11:43:53;11.30;55.30
19214;DHT22;9741;51.020;5.304;2023-02-01T11:46:24;11.30;55.40
19214;DHT22;9741;51.020;5.304;2023-02-01T11:48:55;11.40;55.50
19214;DHT22;9741;51.020;5.304;2023-02-01T11:51:34;11.50;55.40
19214;DHT22;9741;51.020;5.304;2023-02-01T11:54:29;11.60;55.10
19214;DHT22;9741;51.020;5.304;2023-02-01T11:57:10;11.70;54.70
19214;DHT22;9741;51.020;5.304;2023-02-01T11:59:54;11.70;54.50
19214;DHT22;9741;51.020;5.304;2023-02-01T12:05:28;11.70;54.20
19214;DHT22;9741;51.020;5.304;2023-02-01T12:08:30;11.60;53.90
19214;DHT22;9741;51.020;5.304;2023-02-01T12:11:14;11.60;53.90
19214;DHT22;9741;51.020;5.304;2023-02-01T12:13:49;11.50;53.70
19214;DHT22;9741;51.020;5.304;2023-02-01T12:16:28;11.40;53.60
19214;DHT22;9741;51.020;5.304;2023-02-01T12:22:13;11.40;53.60
19214;DHT22;9741;51.020;5.304;2023-02-01T12:31:01;11.40;53.40
19214;DHT22;9741;51.020;5.304;2023-02-01T12:33:41;11.30;53.20
19214;DHT22;9741;51.020;5.304;2023-02-01T12:36:16;11.20;53.10
19214;DHT22;9741;51.020;5.304;2023-02-01T12:38:52;11.10;53.10
19214;DHT22;9741;51.020;5.304;2023-02-01T12:41:47;11.10;53.10
19214;DHT22;9741;51.020;5.304;2023-02-01T12:44:32;11.00;53.10
19214;DHT22;9741;51.020;5.304;2023-02-01T12:47:06;11.00;53.10
19214;DHT22;9741;51.020;5.304;2023-02-01T12:49:44;11.00;53.20
19214;DHT22;9741;51.020;5.304;2023-02-01T12:52:18;10.90;53.00
19214;DHT22;9741;51.020;5.304;2023-02-01T12:54:53;10.90;53.10
19214;DHT22;9741;51.020;5.304;2023-02-01T12:57:25;10.90;53.00
19214;DHT22;9741;51.020;5.304;2023-02-01T13:00:01;10.90;53.00
19214;DHT22;9741;51.020;5.304;2023-02-01T13:02:37;10.80;53.00
19214;DHT22;9741;51.020;5.304;2023-02-01T13:05:14;10.80;53.00
19214;DHT22;9741;51.020;5.304;2023-02-01T13:07:49;10.70;52.90
19214;DHT22;9741;51.020;5.304;2023-02-01T13:10:27;10.70;52.80
19214;DHT22;9741;51.020;5.304;2023-02-01T13:12:59;10.60;52.80
19214;DHT22;9741;51.020;5.304;2023-02-01T13:15:33;10.60;52.90
19214;DHT22;9741;51.020;5.304;2023-02-01T13:18:05;10.60;53.00
19214;DHT22;9741;51.020;5.304;2023-02-01T13:20:37;10.60;53.10
19214;DHT22;9741;51.020;5.304;2023-02-01T13:23:11;10.70;53.10
19214;DHT22;9741;51.020;5.304;2023-02-01T13:25:47;10.70;53.00
19214;DHT22;9741;51.020;5.304;2023-02-01T13:28:18;10.70;53.00
19214;DHT22;9741;51.020;5.304;2023-02-01T13:31:02;10.70;53.00
19214;DHT22;9741;51.020;5.304;2023-02-01T13:33:54;10.70;52.90
19214;DHT22;9741;51.020;5.304;2023-02-01T13:36:36;10.70;52.90
19214;DHT22;9741;51.020;5.304;2023-02-01T13:39:37;10.60;52.90
19214;DHT22;9741;51.020;5.304;2023-02-01T13:42:16;10.60;52.90
19214;DHT22;9741;51.020;5.304;2023-02-01T13:44:48;10.60;53.00
19214;DHT22;9741;51.020;5.304;2023-02-01T13:47:22;10.60;53.00
19214;DHT22;9741;51.020;5.304;2023-02-01T13:49:53;10.60;52.90
19214;DHT22;9741;51.020;5.304;2023-02-01T13:52:35;10.60;52.90
19214;DHT22;9741;51.020;5.304;2023-02-01T13:55:34;10.70;53.00
19214;DHT22;9741;51.020;5.304;2023-02-01T13:58:13;10.70;53.00
19214;DHT22;9741;51.020;5.304;2023-02-01T14:00:42;10.70;52.90
19214;DHT22;9741;51.020;5.304;2023-02-01T14:03:17;10.70;52.90
19214;DHT22;9741;51.020;5.304;2023-02-01T14:05:57;10.80;53.00
19214;DHT22;9741;51.020;5.304;2023-02-01T14:08:38;10.80;52.90
19214;DHT22;9741;51.020;5.304;2023-02-01T14:11:06;10.80;52.80
19214;DHT22;9741;51.020;5.304;2023-02-01T14:13:37;10.90;52.80
19214;DHT22;9741;51.020;5.304;2023-02-01T14:16:16;10.90;52.80
19214;DHT22;9741;51.020;5.304;2023-02-01T14:18:58;10.90;52.80
19214;DHT22;9741;51.020;5.304;2023-02-01T14:21:28;10.90;52.80
19214;DHT22;9741;51.020;5.304;2023-02-01T14:23:58;10.90;52.80
19214;DHT22;9741;51.020;5.304;2023-02-01T14:26:40;10.90;52.70
19214;DHT22;9741;51.020;5.304;2023-02-01T14:29:21;10.90;52.70
19214;DHT22;9741;51.020;5.304;2023-02-01T14:31:59;10.90;53.20
19214;DHT22;9741;51.020;5.304;2023-02-01T14:34:40;10.90;52.60
19214;DHT22;9741;51.020;5.304;2023-02-01T14:37:24;10.90;52.50
19214;DHT22;9741;51.020;5.304;2023-02-01T14:39:56;10.90;52.40
19214;DHT22;9741;51.020;5.304;2023-02-01T14:42:32;10.90;52.50
19214;DHT22;9741;51.020;5.304;2023-02-01T14:51:09;10.70;52.50
19214;DHT22;9741;51.020;5.304;2023-02-01T14:53:38;10.60;52.50
19214;DHT22;9741;51.020;5.304;2023-02-01T14:56:13;10.60;52.60
19214;DHT22;9741;51.020;5.304;2023-02-01T14:58:44;10.60;52.60
19214;DHT22;9741;51.020;5.304;2023-02-01T15:01:22;10.50;52.60
19214;DHT22;9741;51.020;5.304;2023-02-01T15:03:58;10.50;52.70
19214;DHT22;9741;51.020;5.304;2023-02-01T15:06:39;10.50;52.70
19214;DHT22;9741;51.020;5.304;2023-02-01T15:09:10;10.40;52.60
19214;DHT22;9741;51.020;5.304;2023-02-01T15:11:56;10.40;53.30
19214;DHT22;9741;51.020;5.304;2023-02-01T15:14:24;10.40;53.30
19214;DHT22;9741;51.020;5.304;2023-02-01T15:16:52;10.40;52.80
19214;DHT22;9741;51.020;5.304;2023-02-01T15:19:22;10.40;52.90
19214;DHT22;9741;51.020;5.304;2023-02-01T15:21:52;10.40;52.90
19214;DHT22;9741;51.020;5.304;2023-02-01T15:24:22;10.40;52.80
19214;DHT22;9741;51.020;5.304;2023-02-01T15:26:50;10.40;52.90
19214;DHT22;9741;51.020;5.304;2023-02-01T15:29:19;10.40;52.90
19214;DHT22;9741;51.020;5.304;2023-02-01T15:31:48;10.40;52.90
19214;DHT22;9741;51.020;5.304;2023-02-01T15:34:18;10.40;52.80
19214;DHT22;9741;51.020;5.304;2023-02-01T15:36:47;10.30;52.70
19214;DHT22;9741;51.020;5.304;2023-02-01T15:39:19;10.30;52.70
19214;DHT22;9741;51.020;5.304;2023-02-01T15:41:51;10.30;52.70
19214;DHT22;9741;51.020;5.304;2023-02-01T15:44:28;10.30;52.70
19214;DHT22;9741;51.020;5.304;2023-02-01T15:46:57;10.30;52.70
19214;DHT22;9741;51.020;5.304;2023-02-01T15:49:28;10.30;52.70
19214;DHT22;9741;51.020;5.304;2023-02-01T15:51:58;10.30;52.70
19214;DHT22;9741;51.020;5.304;2023-02-01T15:54:30;10.30;52.70
19214;DHT22;9741;51.020;5.304;2023-02-01T15:57:00;10.30;52.80
19214;DHT22;9741;51.020;5.304;2023-02-01T15:59:32;10.30;52.80
19214;DHT22;9741;51.020;5.304;2023-02-01T16:02:01;10.30;52.80
19214;DHT22;9741;51.020;5.304;2023-02-01T16:04:29;10.30;52.80
19214;DHT22;9741;51.020;5.304;2023-02-01T16:06:58;10.20;52.80
19214;DHT22;9741;51.020;5.304;2023-02-01T16:09:38;10.20;52.80
19214;DHT22;9741;51.020;5.304;2023-02-01T16:12:29;10.20;52.80
19214;DHT22;9741;51.020;5.304;2023-02-01T16:14:57;10.20;52.80
19214;DHT22;9741;51.020;5.304;2023-02-01T16:17:25;10.20;52.90
19214;DHT22;9741;51.020;5.304;2023-02-01T16:19:52;10.20;53.10
19214;DHT22;9741;51.020;5.304;2023-02-01T16:22:20;10.10;53.00
19214;DHT22;9741;51.020;5.304;2023-02-01T16:24:48;10.10;53.00
19214;DHT22;9741;51.020;5.304;2023-02-01T16:27:16;10.10;53.00
19214;DHT22;9741;51.020;5.304;2023-02-01T16:29:44;10.10;53.00
19214;DHT22;9741;51.020;5.304;2023-02-01T16:32:16;10.10;53.10
19214;DHT22;9741;51.020;5.304;2023-02-01T16:34:44;10.10;53.10
19214;DHT22;9741;51.020;5.304;2023-02-01T16:37:13;10.00;53.10
19214;DHT22;9741;51.020;5.304;2023-02-01T16:39:42;10.00;53.20
19214;DHT22;9741;51.020;5.304;2023-02-01T16:42:12;10.00;53.30
19214;DHT22;9741;51.020;5.304;2023-02-01T16:44:40;10.00;53.40
19214;DHT22;9741;51.020;5.304;2023-02-01T16:47:12;9.90;54.40
19214;DHT22;9741;51.020;5.304;2023-02-01T16:49:43;9.90;54.60
19214;DHT22;9741;51.020;5.304;2023-02-01T16:52:16;9.80;54.60
19214;DHT22;9741;51.020;5.304;2023-02-01T16:54:45;9.80;54.80
19214;DHT22;9741;51.020;5.304;2023-02-01T16:57:15;9.70;54.90